Huvudsida
METAR-TAF:

METAR-TAF

Flygplatser :

Örnsköldsvik Airport

Örnsköldsvik, Sverige

latitud: 63-24N, longitud: 018-58E, höjd: 103 m

Aktuellt väderrapport

Denna rapport gjordes för 14 minuter sedan, klockan 22:50 UTC
Vind 4 kt från nord/nordost, varierande mellan nord och ost/nordost
Temperatur -6°C
Fuktighet 86%
Tryck 1011 hPa
Sikt 10 km eller mer

METAR: ESNO 112250Z AUTO 03004KT 350V070 9999 OVC019/// M06/M08 Q1011

Tid: 00:04 (23:04 UTC)

Väderprognos

Denna rapport gjordes för 2 timmar och 11 minuter sedan, klockan 20:53 UTC
Prognos gäller från 11 kl. 21 UTC till 11 kl. 23 UTC
Vind 8 kt från nord
Sikt 10 km eller mer
Brutna moln på en höjd av 2000 ft
Sannolikhet 40%
från 11 kl. 21 UTC till 11 kl. 23 UTC
Sikt: 2000 m
Brutna moln på en höjd av 800 ft
snö

TAF: ESNO 112053Z 1121/1123 36008KT 9999 BKN020 PROB40 1121/1123 2000 SN BKN008

Aktuella väderrapporter och prognoser från 4000 flygplatser (METAR- och TAF-rapporter).

De tillgängliga stationerna syns som gula och röda prickar på kartan.

För musen över prickarna för att se namnen på stationerna.

Klicka sedan för att få väderrapporter och prognoser.

För att ändra kartan: Klicka på de gröna knapparna med ett svart kors på för att zooma in; den gröna knappen med ett streck på för att zooma ut; eller på de gröna pilarna för angränsande kartor.


METAR-TAF: